Time;durP1;ratioP1;P1;durP2;ratioP2;P2;SDS_P1;SDS_P2;PMS_P1;PMS_P2;Temp;Humidity;BMP_temperature;BMP_pressure;BME280_temperature;BME280_humidity;BME280_pressure;Samples;Min_cycle;Max_cycle;Signal;HPM_P1;HPM_P2
2022/10/11 00:02:24;;;;;;;7.07;2.50;;;8.00;99.90;;;;;;5053377;28;20052;-64
2022/10/11 00:04:50;;;;;;;13.05;3.45;;;7.90;99.90;;;;;;5053124;28;20055;-64
2022/10/11 00:07:19;;;;;;;11.48;2.17;;;8.00;99.90;;;;;;5051963;28;20116;-64
2022/10/11 00:09:45;;;;;;;9.25;3.00;;;8.00;99.90;;;;;;5053049;28;20036;-64
2022/10/11 00:12:11;;;;;;;15.32;3.03;;;7.90;99.90;;;;;;5036894;28;20037;-64
2022/10/11 00:14:37;;;;;;;12.73;3.10;;;7.90;99.90;;;;;;5035889;28;20086;-64
2022/10/11 00:17:06;;;;;;;11.90;3.53;;;7.90;99.90;;;;;;5054061;28;20075;-64
2022/10/11 00:19:32;;;;;;;13.65;4.63;;;7.90;99.90;;;;;;5052322;28;20048;-64
2022/10/11 00:21:58;;;;;;;10.38;2.90;;;7.90;99.90;;;;;;5052631;28;20402;-64
2022/10/11 00:24:23;;;;;;;11.00;2.58;;;8.00;99.90;;;;;;5053812;28;20084;-64
2022/10/11 00:26:49;;;;;;;11.18;2.63;;;7.90;99.90;;;;;;5086286;28;20048;-64
2022/10/11 00:29:15;;;;;;;11.15;3.08;;;7.80;99.90;;;;;;5085520;28;20053;-64
2022/10/11 00:31:40;;;;;;;12.02;2.72;;;7.80;99.90;;;;;;5052973;28;20508;-64
2022/10/11 00:34:07;;;;;;;10.73;2.15;;;7.70;99.90;;;;;;5053923;28;20037;-64
2022/10/11 00:36:33;;;;;;;8.23;2.00;;;7.70;99.90;;;;;;5052889;28;20095;-64
2022/10/11 00:38:58;;;;;;;13.07;2.50;;;7.70;99.90;;;;;;5053838;28;20476;-64
2022/10/11 00:41:24;;;;;;;13.90;2.67;;;7.70;99.90;;;;;;5086029;28;20496;-64
2022/10/11 00:44:13;;;;;;;11.43;2.90;;;7.80;99.90;;;;;;5085423;28;20041;-64
2022/10/11 00:46:43;;;;;;;10.00;2.53;;;7.80;99.90;;;;;;5052965;28;20545;-64
2022/10/11 00:49:32;;;;;;;9.80;2.42;;;7.80;99.90;;;;;;5067634;28;20044;-64
2022/10/11 00:52:13;;;;;;;9.02;2.50;;;7.80;99.90;;;;;;5053529;28;20076;-64
2022/10/11 00:54:41;;;;;;;12.35;3.17;;;7.90;99.90;;;;;;5052630;28;20086;-64
2022/10/11 00:57:13;;;;;;;9.35;2.95;;;7.90;99.90;;;;;;5051463;28;20049;-64
2022/10/11 00:59:51;;;;;;;10.70;2.53;;;7.90;99.90;;;;;;5053560;28;20060;-64
2022/10/11 01:02:18;;;;;;;15.10;2.33;;;7.90;99.90;;;;;;5052813;28;20045;-64
2022/10/11 01:04:43;;;;;;;10.05;2.58;;;7.90;99.90;;;;;;5052658;28;20099;-64
2022/10/11 01:07:09;;;;;;;11.02;2.67;;;7.80;99.90;;;;;;5051949;28;20044;-64
2022/10/11 01:09:35;;;;;;;9.25;1.90;;;7.80;99.90;;;;;;5052573;28;20106;-64
2022/10/11 01:12:05;;;;;;;10.55;2.30;;;7.70;99.90;;;;;;5053095;28;20127;-64
2022/10/11 01:14:53;;;;;;;10.15;2.85;;;7.70;99.90;;;;;;5052262;28;20059;-64
2022/10/11 01:17:55;;;;;;;12.35;2.60;;;7.70;99.90;;;;;;5050822;28;20041;-64
2022/10/11 01:20:36;;;;;;;10.02;2.08;;;7.60;99.90;;;;;;5053158;28;20033;-64
2022/10/11 01:23:26;;;;;;;8.88;2.70;;;7.50;99.90;;;;;;5068304;28;20547;-64
2022/10/11 01:26:30;;;;;;;13.30;2.45;;;7.60;99.90;;;;;;5084114;28;20053;-64
2022/10/11 01:29:29;;;;;;;12.52;2.30;;;7.50;99.90;;;;;;5039760;28;20044;-64
2022/10/11 01:32:20;;;;;;;12.02;2.20;;;7.60;99.90;;;;;;5049365;28;20052;-64
2022/10/11 01:35:07;;;;;;;9.50;2.00;;;7.50;99.90;;;;;;5051565;28;20040;-64
2022/10/11 01:37:54;;;;;;;11.27;2.25;;;7.50;99.90;;;;;;5051738;28;20047;-64
2022/10/11 01:40:32;;;;;;;14.38;3.28;;;7.40;99.90;;;;;;5068206;28;20462;-64
2022/10/11 01:42:59;;;;;;;10.90;2.33;;;7.40;99.90;;;;;;5051205;28;20460;-64
2022/10/11 01:45:25;;;;;;;10.73;2.60;;;7.40;99.90;;;;;;5050414;28;20041;-64
2022/10/11 01:48:10;;;;;;;12.65;2.60;;;7.30;99.90;;;;;;5051109;28;20120;-64
2022/10/11 01:50:44;;;;;;;13.95;2.90;;;7.30;99.90;;;;;;5052504;28;20048;-64
2022/10/11 01:53:33;;;;;;;12.45;2.45;;;7.20;99.90;;;;;;5050766;28;20049;-64
2022/10/11 01:56:13;;;;;;;8.43;1.83;;;7.20;99.90;;;;;;5051851;28;20462;-64
2022/10/11 01:58:54;;;;;;;12.85;2.28;;;7.20;99.90;;;;;;5052509;28;20040;-64
2022/10/11 02:01:34;;;;;;;7.93;2.45;;;7.10;99.90;;;;;;5052180;28;20502;-64
2022/10/11 02:04:02;;;;;;;9.30;2.55;;;7.10;99.90;;;;;;5051253;28;20119;-64
2022/10/11 02:06:39;;;;;;;14.77;2.10;;;7.10;99.90;;;;;;5066789;28;20041;-64
2022/10/11 02:09:23;;;;;;;10.95;2.60;;;7.10;99.90;;;;;;5050532;28;20052;-64
2022/10/11 02:11:49;;;;;;;8.57;1.90;;;7.10;99.90;;;;;;5051380;28;20394;-64
2022/10/11 02:14:19;;;;;;;16.02;2.80;;;7.00;99.90;;;;;;5050121;28;20052;-64
2022/10/11 02:16:56;;;;;;;12.15;2.20;;;7.00;99.90;;;;;;5051051;28;20519;-64
2022/10/11 02:19:26;;;;;;;10.45;2.25;;;7.00;99.90;;;;;;5051985;28;20505;-64
2022/10/11 02:21:56;;;;;;;15.75;2.83;;;7.00;99.90;;;;;;5051053;28;20040;-64
2022/10/11 02:24:32;;;;;;;8.80;2.17;;;6.90;99.90;;;;;;5052002;28;20414;-64
2022/10/11 02:27:00;;;;;;;15.20;2.92;;;6.90;99.90;;;;;;5049921;28;20064;-64
2022/10/11 02:29:29;;;;;;;12.20;2.30;;;6.90;99.90;;;;;;5050748;28;20414;-64
2022/10/11 02:31:57;;;;;;;8.80;3.03;;;6.90;99.90;;;;;;5050444;28;20045;-64
2022/10/11 02:34:25;;;;;;;13.63;2.83;;;6.90;99.90;;;;;;5051028;28;20189;-64
2022/10/11 02:37:04;;;;;;;12.27;2.97;;;6.90;99.90;;;;;;5084099;28;20076;-64
2022/10/11 02:39:54;;;;;;;10.52;2.20;;;6.90;99.90;;;;;;5050680;28;20043;-64
2022/10/11 02:42:25;;;;;;;9.93;3.15;;;6.90;99.90;;;;;;5033240;28;20055;-64
2022/10/11 02:44:59;;;;;;;10.68;3.03;;;6.90;99.90;;;;;;5033890;28;20497;-64
2022/10/11 02:47:30;;;;;;;10.98;2.92;;;6.80;99.90;;;;;;5033961;28;20493;-64
2022/10/11 02:50:00;;;;;;;9.85;2.40;;;6.80;99.90;;;;;;5049271;28;20041;-64
2022/10/11 02:52:26;;;;;;;9.32;2.53;;;6.80;99.90;;;;;;5051747;28;20047;-64
2022/10/11 02:54:52;;;;;;;5.90;1.98;;;6.80;99.90;;;;;;5050319;28;20041;-64
2022/10/11 02:57:17;;;;;;;12.63;2.47;;;6.80;99.90;;;;;;5050858;28;20033;-64
2022/10/11 02:59:43;;;;;;;9.80;2.95;;;6.80;99.90;;;;;;5050927;28;20045;-64
2022/10/11 03:02:09;;;;;;;7.88;2.20;;;6.90;99.90;;;;;;5049778;28;20047;-64
2022/10/11 03:04:34;;;;;;;13.98;2.53;;;6.80;99.90;;;;;;5049847;28;20045;-64
2022/10/11 03:07:00;;;;;;;13.23;3.67;;;6.90;99.90;;;;;;5051720;28;20132;-64
2022/10/11 03:09:26;;;;;;;10.68;2.75;;;6.90;99.90;;;;;;5050808;28;20473;-64
2022/10/11 03:11:51;;;;;;;13.35;2.08;;;6.80;99.90;;;;;;5083938;28;20478;-64
2022/10/11 03:14:17;;;;;;;8.57;2.20;;;6.80;99.90;;;;;;5051569;28;20505;-64
2022/10/11 03:16:42;;;;;;;9.60;2.15;;;6.80;99.90;;;;;;5051118;28;20478;-64
2022/10/11 03:19:08;;;;;;;8.18;2.17;;;6.90;99.90;;;;;;5083172;28;20142;-64
2022/10/11 03:21:34;;;;;;;10.93;2.15;;;6.80;99.90;;;;;;5033822;28;20037;-64
2022/10/11 03:24:00;;;;;;;10.00;2.70;;;6.80;99.90;;;;;;5053724;28;20084;-64
2022/10/11 03:26:26;;;;;;;9.45;2.40;;;6.90;99.90;;;;;;5053948;28;20133;-64
2022/10/11 03:28:51;;;;;;;11.48;2.30;;;6.90;99.90;;;;;;5053712;28;20428;-64
2022/10/11 03:31:17;;;;;;;8.82;2.17;;;7.00;99.90;;;;;;5052597;28;20505;-64
2022/10/11 03:33:43;;;;;;;7.35;2.45;;;7.00;99.90;;;;;;5055409;28;20041;-64
2022/10/11 03:36:09;;;;;;;10.48;2.45;;;7.00;99.90;;;;;;5055039;28;20037;-64
2022/10/11 03:38:35;;;;;;;10.13;3.17;;;7.00;99.90;;;;;;5054285;28;20040;-64
2022/10/11 03:41:00;;;;;;;6.47;2.00;;;7.00;99.90;;;;;;5053575;28;20037;-64
2022/10/11 03:43:26;;;;;;;7.82;1.92;;;7.10;99.90;;;;;;5053467;28;20489;-64
2022/10/11 03:45:52;;;;;;;5.97;2.00;;;7.10;99.90;;;;;;5035804;28;20436;-64
2022/10/11 03:48:17;;;;;;;9.75;2.20;;;7.10;99.90;;;;;;5054853;28;20410;-64
2022/10/11 03:50:43;;;;;;;9.18;3.10;;;7.10;99.90;;;;;;5053883;28;20405;-64
2022/10/11 03:53:09;;;;;;;8.93;3.00;;;7.10;99.90;;;;;;5052566;28;20045;-64
2022/10/11 03:55:37;;;;;;;10.13;3.30;;;7.20;99.90;;;;;;5053515;28;20041;-64
2022/10/11 03:58:03;;;;;;;7.25;2.50;;;7.20;99.90;;;;;;5087115;28;20040;-64
2022/10/11 04:00:29;;;;;;;11.63;3.00;;;7.20;99.90;;;;;;5085989;28;20037;-64
2022/10/11 04:02:54;;;;;;;9.38;3.17;;;7.20;99.90;;;;;;5086873;28;20045;-64
2022/10/11 04:05:20;;;;;;;10.38;3.10;;;7.30;99.90;;;;;;5054345;28;20041;-64
2022/10/11 04:07:46;;;;;;;9.75;2.63;;;7.30;99.90;;;;;;5086328;28;20041;-64
2022/10/11 04:10:11;;;;;;;11.80;2.70;;;7.40;99.90;;;;;;5053955;28;20119;-64
2022/10/11 04:12:38;;;;;;;8.20;3.00;;;7.40;99.90;;;;;;5052397;28;20053;-64
2022/10/11 04:15:04;;;;;;;13.68;2.78;;;7.40;99.90;;;;;;5054425;28;20041;-64
2022/10/11 04:17:30;;;;;;;8.93;2.67;;;7.40;99.90;;;;;;5052814;28;20416;-64
2022/10/11 04:19:56;;;;;;;11.93;3.08;;;7.50;99.90;;;;;;5052330;28;20045;-64
2022/10/11 04:22:22;;;;;;;10.82;2.72;;;7.50;99.90;;;;;;5053475;28;20478;-64
2022/10/11 04:24:47;;;;;;;13.80;4.07;;;7.50;99.90;;;;;;5036242;28;20063;-64
2022/10/11 04:27:13;;;;;;;9.05;3.28;;;7.60;99.90;;;;;;5052206;28;20087;-64
2022/10/11 04:29:38;;;;;;;7.95;3.33;;;7.60;99.90;;;;;;5052959;28;20075;-64
2022/10/11 04:32:04;;;;;;;10.18;3.38;;;7.60;99.90;;;;;;5036400;28;20410;-64
2022/10/11 04:34:30;;;;;;;10.73;3.10;;;7.70;99.90;;;;;;5035101;28;20462;-64
2022/10/11 04:36:56;;;;;;;10.23;2.95;;;7.70;99.90;;;;;;5052093;28;20047;-64
2022/10/11 04:39:21;;;;;;;13.18;3.08;;;7.70;99.90;;;;;;5052626;28;20052;-64
2022/10/11 04:41:47;;;;;;;15.55;3.45;;;7.80;99.90;;;;;;5035138;28;20457;-64
2022/10/11 04:44:13;;;;;;;10.75;2.85;;;7.80;99.90;;;;;;5052545;28;20069;-64
2022/10/11 04:46:38;;;;;;;15.05;3.60;;;7.90;99.90;;;;;;5035820;28;20048;-64
2022/10/11 04:49:05;;;;;;;9.57;2.63;;;7.90;99.90;;;;;;5052888;28;20051;-64
2022/10/11 04:51:32;;;;;;;11.77;3.22;;;8.00;99.90;;;;;;5052936;28;20044;-64
2022/10/11 04:53:58;;;;;;;12.35;2.90;;;8.00;99.90;;;;;;5053582;28;20412;-64
2022/10/11 04:56:24;;;;;;;8.82;2.42;;;8.00;99.90;;;;;;5052805;28;20108;-64
2022/10/11 04:58:52;;;;;;;15.75;3.15;;;8.00;99.90;;;;;;5053452;28;20037;-64
2022/10/11 05:01:19;;;;;;;15.32;3.42;;;8.00;99.90;;;;;;5052398;28;20072;-64
2022/10/11 05:03:44;;;;;;;12.52;2.80;;;8.00;99.90;;;;;;5051469;28;20094;-64
2022/10/11 05:06:10;;;;;;;12.30;2.80;;;8.00;99.90;;;;;;5052944;28;20120;-64
2022/10/11 05:08:36;;;;;;;14.32;2.85;;;7.90;99.90;;;;;;5053557;28;20066;-64
2022/10/11 05:11:08;;;;;;;13.98;3.55;;;7.90;99.90;;;;;;5050030;28;20083;-64
2022/10/11 05:13:35;;;;;;;11.43;2.35;;;7.90;99.90;;;;;;5048533;28;20081;-64
2022/10/11 05:16:02;;;;;;;14.00;3.13;;;7.90;99.90;;;;;;5048835;28;20131;-64
2022/10/11 05:18:29;;;;;;;14.40;4.18;;;7.90;99.90;;;;;;5068796;28;20048;-65
2022/10/11 05:21:06;;;;;;;11.98;3.53;;;7.90;99.90;;;;;;5064695;28;20098;-64
2022/10/11 05:23:33;;;;;;;16.63;4.03;;;7.80;99.90;;;;;;5063805;28;20455;-64
2022/10/11 05:25:59;;;;;;;17.63;3.78;;;7.80;99.90;;;;;;5031564;28;20072;-64
2022/10/11 05:28:25;;;;;;;9.45;3.15;;;7.70;99.90;;;;;;5032874;28;20048;-64
2022/10/11 05:30:52;;;;;;;18.38;4.47;;;7.70;99.90;;;;;;5029152;28;20048;-63
2022/10/11 05:33:18;;;;;;;9.73;4.18;;;7.70;99.90;;;;;;5042699;28;20052;-64
2022/10/11 05:35:44;;;;;;;13.35;4.13;;;7.70;99.90;;;;;;5065868;28;20037;-65
2022/10/11 05:38:10;;;;;;;14.82;3.88;;;7.60;99.90;;;;;;5026556;28;20517;-64
2022/10/11 05:40:37;;;;;;;10.70;3.75;;;7.60;99.90;;;;;;5030421;28;20381;-65
2022/10/11 05:43:04;;;;;;;11.57;3.78;;;7.60;99.90;;;;;;5049915;28;20060;-65
2022/10/11 05:45:31;;;;;;;13.55;3.55;;;7.60;99.90;;;;;;5047055;28;20051;-65
2022/10/11 05:47:58;;;;;;;9.90;3.28;;;7.50;99.90;;;;;;5048311;28;20041;-65
2022/10/11 05:50:24;;;;;;;10.93;2.90;;;7.50;99.90;;;;;;5048332;28;20053;-64
2022/10/11 05:52:50;;;;;;;21.85;3.60;;;7.50;99.90;;;;;;5031163;28;20051;-64
2022/10/11 05:55:16;;;;;;;10.88;3.63;;;7.50;99.90;;;;;;5049868;28;20048;-65
2022/10/11 05:57:43;;;;;;;9.70;2.85;;;7.50;99.90;;;;;;5046859;28;20060;-64
2022/10/11 06:00:09;;;;;;;12.77;3.13;;;7.50;99.90;;;;;;5031425;28;20496;-64
2022/10/11 06:02:35;;;;;;;11.10;3.17;;;7.50;99.90;;;;;;5048231;28;20045;-65
2022/10/11 06:05:02;;;;;;;14.55;3.53;;;7.50;99.90;;;;;;5031514;28;20394;-65
2022/10/11 06:07:28;;;;;;;9.25;3.22;;;7.40;99.90;;;;;;5031194;28;20076;-64
2022/10/11 06:09:53;;;;;;;11.48;2.97;;;7.40;99.90;;;;;;5046479;28;20126;-63
2022/10/11 06:12:20;;;;;;;8.45;2.58;;;7.40;99.90;;;;;;5046240;28;20057;-64
2022/10/11 06:14:46;;;;;;;11.50;3.40;;;7.40;99.90;;;;;;5048241;28;20043;-64
2022/10/11 06:17:12;;;;;;;15.93;2.80;;;7.40;99.90;;;;;;5051275;28;20127;-64
2022/10/11 06:19:37;;;;;;;11.05;3.20;;;7.40;99.90;;;;;;5049494;28;20048;-64
2022/10/11 06:22:03;;;;;;;10.98;3.05;;;7.40;99.90;;;;;;5046794;28;20051;-64
2022/10/11 06:24:29;;;;;;;13.55;3.22;;;7.50;99.90;;;;;;5045636;28;20049;-65
2022/10/11 06:26:55;;;;;;;11.95;3.28;;;7.60;99.90;;;;;;5046091;28;20107;-64
2022/10/11 06:29:21;;;;;;;14.50;3.97;;;7.60;99.90;;;;;;5049114;28;20063;-64
2022/10/11 06:31:47;;;;;;;10.45;2.55;;;7.60;99.90;;;;;;5046999;28;20052;-64
2022/10/11 06:34:14;;;;;;;18.50;3.80;;;7.70;99.90;;;;;;5047197;28;20035;-64
2022/10/11 06:36:45;;;;;;;10.85;3.53;;;7.80;99.90;;;;;;5031156;28;20044;-65
2022/10/11 06:39:10;;;;;;;10.93;3.30;;;7.90;99.90;;;;;;5031943;28;20087;-64
2022/10/11 06:41:36;;;;;;;12.70;3.35;;;8.00;99.90;;;;;;5046737;28;20044;-64
2022/10/11 06:44:02;;;;;;;15.95;3.47;;;8.00;99.90;;;;;;5064538;28;20120;-64
2022/10/11 06:46:30;;;;;;;13.57;3.20;;;8.10;99.90;;;;;;5048183;28;20813;-64
2022/10/11 06:48:55;;;;;;;7.35;2.30;;;8.30;99.90;;;;;;5081262;28;20037;-64
2022/10/11 06:51:22;;;;;;;9.70;3.40;;;8.40;99.90;;;;;;5081419;28;20086;-64
2022/10/11 06:53:54;;;;;;;12.18;3.70;;;8.50;99.90;;;;;;5048455;28;20180;-67
2022/10/11 06:56:20;;;;;;;16.92;3.33;;;8.60;99.90;;;;;;5046320;28;20053;-64
2022/10/11 06:58:46;;;;;;;17.13;3.88;;;8.70;99.90;;;;;;5052556;28;20373;-64
2022/10/11 07:01:17;;;;;;;12.55;4.03;;;8.70;99.90;;;;;;5052204;28;20037;-64
2022/10/11 07:03:44;;;;;;;12.23;4.47;;;8.80;99.90;;;;;;5068923;28;20051;-64
2022/10/11 07:06:12;;;;;;;10.80;3.35;;;8.80;99.90;;;;;;5085585;28;20040;-64
2022/10/11 07:08:38;;;;;;;12.18;3.70;;;8.90;99.90;;;;;;5052269;28;20095;-65
2022/10/11 07:11:06;;;;;;;9.85;3.53;;;8.90;99.90;;;;;;5051281;28;20541;-64
2022/10/11 07:13:32;;;;;;;12.15;3.65;;;9.00;99.90;;;;;;5033418;28;20045;-64
2022/10/11 07:16:03;;;;;;;15.57;3.83;;;9.00;99.90;;;;;;5051534;28;20028;-64
2022/10/11 07:18:29;;;;;;;12.82;4.40;;;9.00;99.90;;;;;;5052495;28;20045;-64
2022/10/11 07:20:54;;;;;;;14.60;4.28;;;9.00;99.90;;;;;;5050195;28;20114;-65
2022/10/11 07:23:20;;;;;;;12.32;3.25;;;9.00;99.90;;;;;;5083394;28;20045;-64
2022/10/11 07:25:46;;;;;;;14.15;3.33;;;9.10;99.90;;;;;;5052324;28;20588;-65
2022/10/11 07:28:12;;;;;;;15.52;3.83;;;9.10;99.90;;;;;;5051438;28;20124;-64
2022/10/11 07:30:39;;;;;;;13.43;3.67;;;9.20;99.90;;;;;;5051051;28;20124;-64
2022/10/11 07:33:05;;;;;;;13.65;2.97;;;9.20;99.90;;;;;;5052018;28;20466;-64
2022/10/11 07:35:34;;;;;;;15.10;3.78;;;9.40;99.90;;;;;;5034139;28;20124;-64
2022/10/11 07:38:00;;;;;;;12.07;3.30;;;9.50;99.90;;;;;;5050006;28;20095;-65
2022/10/11 07:40:26;;;;;;;16.10;3.55;;;9.60;99.90;;;;;;5034026;28;20045;-64
2022/10/11 07:42:52;;;;;;;12.80;3.33;;;9.70;99.90;;;;;;5084273;28;20048;-65
2022/10/11 07:45:17;;;;;;;11.32;3.25;;;9.90;99.90;;;;;;5083437;28;20059;-64
2022/10/11 07:47:45;;;;;;;13.00;3.75;;;10.00;99.90;;;;;;5052329;28;20060;-64
2022/10/11 07:50:12;;;;;;;13.43;3.80;;;10.20;99.90;;;;;;5052237;28;20498;-64
2022/10/11 07:52:38;;;;;;;10.93;3.28;;;10.30;99.90;;;;;;5085717;28;20056;-64
2022/10/11 07:55:04;;;;;;;11.90;3.28;;;10.40;99.90;;;;;;5055230;28;20386;-64
2022/10/11 07:57:30;;;;;;;11.07;3.33;;;10.60;99.90;;;;;;5054193;28;20025;-64
2022/10/11 07:59:55;;;;;;;13.73;4.00;;;10.70;99.90;;;;;;5052875;28;20474;-64
2022/10/11 08:02:21;;;;;;;11.50;3.38;;;10.80;99.90;;;;;;5054518;28;20074;-64
2022/10/11 08:04:47;;;;;;;16.33;3.08;;;10.90;99.90;;;;;;5085424;28;20048;-64
2022/10/11 08:07:12;;;;;;;11.43;2.88;;;11.10;99.90;;;;;;5054611;28;20044;-64
2022/10/11 08:09:38;;;;;;;15.95;3.67;;;11.20;99.90;;;;;;5052501;28;20392;-64
2022/10/11 08:12:04;;;;;;;12.88;2.67;;;11.30;99.90;;;;;;5085898;28;20485;-64
2022/10/11 08:14:29;;;;;;;22.05;4.03;;;11.30;99.90;;;;;;5053978;28;20033;-63
2022/10/11 08:16:55;;;;;;;12.60;3.83;;;11.40;99.90;;;;;;5052680;28;20123;-63
2022/10/11 08:19:20;;;;;;;18.00;3.45;;;11.40;99.90;;;;;;5053394;28;20045;-64
2022/10/11 08:21:46;;;;;;;11.95;2.80;;;11.40;99.90;;;;;;5053412;28;20034;-63
2022/10/11 08:24:19;;;;;;;11.95;3.15;;;11.40;99.90;;;;;;5052618;28;20045;-63
2022/10/11 08:26:47;;;;;;;9.10;2.88;;;11.30;99.90;;;;;;5053051;28;20480;-63
2022/10/11 08:29:13;;;;;;;12.45;3.03;;;11.30;99.90;;;;;;5052387;28;20040;-63
2022/10/11 08:31:39;;;;;;;10.25;2.80;;;11.30;99.90;;;;;;5086708;28;20056;-64
2022/10/11 08:34:05;;;;;;;11.85;3.00;;;11.40;99.90;;;;;;5034858;28;20045;-64
2022/10/11 08:36:30;;;;;;;14.02;3.47;;;11.40;99.90;;;;;;5036346;28;20095;-63
2022/10/11 08:38:57;;;;;;;14.48;3.53;;;11.50;99.90;;;;;;5052463;28;20454;-64
2022/10/11 08:41:40;;;;;;;15.13;4.00;;;11.60;99.90;;;;;;5053160;28;20040;-65
2022/10/11 08:44:12;;;;;;;20.55;5.05;;;11.60;99.90;;;;;;5053514;28;20033;-63
2022/10/11 08:46:41;;;;;;;23.73;6.03;;;11.60;99.90;;;;;;5048790;28;20045;-64
2022/10/11 08:49:10;;;;;;;12.10;4.45;;;11.70;99.90;;;;;;5046518;28;20432;-64
2022/10/11 08:51:44;;;;;;;14.60;3.03;;;11.60;99.90;;;;;;5035308;28;20072;-63
2022/10/11 08:54:21;;;;;;;13.88;3.25;;;11.70;99.90;;;;;;5019166;28;20029;-63
2022/10/11 08:56:48;;;;;;;13.45;3.97;;;11.70;99.90;;;;;;5052920;28;20033;-63
2022/10/11 08:59:27;;;;;;;17.45;3.58;;;11.80;99.90;;;;;;5034866;28;20045;-63
2022/10/11 09:02:00;;;;;;;12.80;3.20;;;11.90;99.90;;;;;;5033894;28;20040;-63
2022/10/11 09:04:26;;;;;;;15.95;2.92;;;11.90;99.90;;;;;;5051509;28;20052;-64
2022/10/11 09:07:23;;;;;;;13.80;4.45;;;12.00;99.90;;;;;;5084721;28;20397;-64
2022/10/11 09:10:09;;;;;;;9.00;2.47;;;12.10;99.90;;;;;;5051459;28;20120;-64
2022/10/11 09:13:10;;;;;;;9.77;2.90;;;12.30;99.90;;;;;;5051285;28;20033;-64
2022/10/11 09:15:59;;;;;;;9.45;2.78;;;12.40;99.90;;;;;;5038694;28;20044;-64
2022/10/11 09:18:34;;;;;;;13.80;3.20;;;12.60;99.90;;;;;;5051289;28;20096;-64
2022/10/11 09:21:19;;;;;;;11.90;3.38;;;12.80;99.90;;;;;;5085410;28;20397;-64
2022/10/11 09:24:17;;;;;;;9.23;2.93;;;12.90;99.90;;;;;;5050224;28;20140;-64
2022/10/11 09:26:56;;;;;;;12.52;3.30;;;13.10;99.90;;;;;;5068150;28;20691;-64
2022/10/11 09:29:50;;;;;;;12.77;3.05;;;13.20;99.90;;;;;;5051457;28;20041;-64
2022/10/11 09:32:21;;;;;;;14.77;2.63;;;13.40;99.90;;;;;;5050933;28;20041;-63
2022/10/11 09:35:10;;;;;;;15.15;3.42;;;13.50;99.90;;;;;;5084138;28;20063;-64
2022/10/11 09:38:11;;;;;;;12.18;3.30;;;13.60;99.90;;;;;;5049023;28;20064;-64
2022/10/11 09:41:06;;;;;;;10.20;3.05;;;13.70;99.90;;;;;;5049485;28;20116;-64
2022/10/11 09:43:32;;;;;;;11.90;3.73;;;13.80;99.90;;;;;;5049064;28;20088;-64
2022/10/11 09:45:58;;;;;;;6.25;1.85;;;13.90;99.90;;;;;;5084034;28;20087;-64
2022/10/11 09:48:36;;;;;;;10.02;2.95;;;13.90;99.90;;;;;;5051725;28;20124;-64
2022/10/11 09:51:07;;;;;;;12.52;3.22;;;13.80;99.90;;;;;;5050326;28;20037;-64
2022/10/11 09:54:09;;;;;;;10.60;2.33;;;13.70;99.90;;;;;;5049451;28;20178;-64
2022/10/11 09:56:41;;;;;;;11.65;2.33;;;13.70;99.90;;;;;;5009845;28;20041;-64
2022/10/11 09:59:26;;;;;;;10.55;3.10;;;13.70;99.90;;;;;;5044559;28;20129;-63
2022/10/11 10:02:19;;;;;;;12.87;3.50;;;13.70;99.90;;;;;;5081111;28;20056;-64
2022/10/11 10:04:59;;;;;;;8.80;2.50;;;13.80;99.90;;;;;;5049908;28;20374;-63
2022/10/11 10:07:26;;;;;;;10.40;3.50;;;13.80;99.90;;;;;;5051244;28;20485;-63
2022/10/11 10:09:52;;;;;;;11.55;3.05;;;13.80;99.90;;;;;;5051609;28;20127;-64
2022/10/11 10:12:21;;;;;;;11.73;3.78;;;13.80;99.90;;;;;;5033307;28;20143;-64
2022/10/11 10:15:01;;;;;;;10.38;2.30;;;13.90;99.90;;;;;;5033499;28;20114;-65
2022/10/11 10:17:27;;;;;;;8.57;2.80;;;14.00;99.90;;;;;;5033693;28;20072;-65
2022/10/11 10:19:55;;;;;;;17.10;3.55;;;13.90;99.90;;;;;;5083228;28;20558;-65
2022/10/11 10:22:28;;;;;;;8.65;1.95;;;13.90;99.90;;;;;;5050343;28;20091;-65
2022/10/11 10:24:56;;;;;;;6.63;1.90;;;13.80;99.90;;;;;;5050277;28;20057;-65
2022/10/11 10:27:24;;;;;;;11.68;2.03;;;13.80;99.90;;;;;;5049205;28;20136;-65
2022/10/11 10:30:08;;;;;;;8.13;2.10;;;13.70;99.90;;;;;;5082990;28;20059;-65
2022/10/11 10:32:36;;;;;;;8.35;2.15;;;13.70;99.90;;;;;;5049907;28;20056;-64
2022/10/11 10:35:31;;;;;;;9.77;2.70;;;13.70;99.90;;;;;;5049792;28;20033;-65
2022/10/11 10:38:15;;;;;;;10.98;2.78;;;13.60;99.90;;;;;;5037487;28;20159;-65
2022/10/11 10:40:48;;;;;;;8.07;1.75;;;13.60;99.90;;;;;;5083552;28;20048;-65
2022/10/11 10:43:17;;;;;;;9.02;2.65;;;13.70;99.90;;;;;;5083896;28;20044;-65
2022/10/11 10:45:55;;;;;;;11.70;2.25;;;13.80;99.90;;;;;;5052163;28;20147;-65
2022/10/11 10:48:39;;;;;;;10.15;2.10;;;13.90;99.90;;;;;;5082264;28;20037;-65
2022/10/11 10:51:43;;;;;;;8.35;2.03;;;14.00;99.90;;;;;;5046159;28;20041;-65
2022/10/11 10:54:20;;;;;;;10.27;1.92;;;14.00;99.90;;;;;;5048995;28;20075;-64
2022/10/11 10:56:53;;;;;;;12.98;2.22;;;14.10;99.90;;;;;;5050196;28;20041;-64
2022/10/11 10:59:25;;;;;;;6.50;1.80;;;14.10;99.90;;;;;;5051318;28;20051;-64
2022/10/11 11:02:24;;;;;;;6.90;1.92;;;14.20;99.90;;;;;;5032656;28;20040;-65
2022/10/11 11:05:15;;;;;;;7.03;1.95;;;14.20;99.90;;;;;;5050550;28;20037;-65
2022/10/11 11:07:43;;;;;;;8.55;2.30;;;14.30;99.90;;;;;;5027072;28;20137;-64
2022/10/11 11:10:15;;;;;;;9.25;2.45;;;14.40;99.90;;;;;;5049429;28;20037;-64
2022/10/11 11:12:41;;;;;;;9.02;2.25;;;14.50;99.90;;;;;;5050725;28;20120;-64
2022/10/11 11:15:12;;;;;;;8.20;1.80;;;14.70;99.90;;;;;;5082848;28;20120;-64
2022/10/11 11:18:06;;;;;;;7.30;1.92;;;14.80;99.90;;;;;;5082501;28;20498;-64
2022/10/11 11:20:45;;;;;;;9.93;2.08;;;14.90;99.90;;;;;;5041136;28;20504;-64
2022/10/11 11:23:26;;;;;;;6.22;1.88;;;15.00;99.90;;;;;;5032881;28;20041;-64
2022/10/11 11:26:26;;;;;;;7.70;1.70;;;15.00;99.90;;;;;;5013841;28;20401;-65
2022/10/11 11:29:24;;;;;;;9.98;2.80;;;15.00;99.90;;;;;;5029374;28;20128;-64
2022/10/11 11:32:14;;;;;;;6.93;2.13;;;14.90;99.90;;;;;;5030323;28;20072;-64
2022/10/11 11:34:48;;;;;;;11.80;2.53;;;14.80;99.90;;;;;;5030435;28;20072;-64
2022/10/11 11:37:16;;;;;;;10.10;2.15;;;14.80;99.90;;;;;;5045692;28;20075;-64
2022/10/11 11:39:49;;;;;;;7.63;2.05;;;14.90;99.90;;;;;;5050574;28;20120;-64
2022/10/11 11:42:33;;;;;;;11.70;2.80;;;14.90;99.90;;;;;;5049859;28;20049;-64
2022/10/11 11:45:10;;;;;;;13.07;2.15;;;14.80;99.90;;;;;;5052939;28;20475;-64
2022/10/11 11:47:40;;;;;;;9.93;2.22;;;14.70;99.90;;;;;;5053986;28;20041;-64
2022/10/11 11:50:23;;;;;;;8.75;2.05;;;14.70;99.90;;;;;;5052672;28;20051;-64
2022/10/11 11:52:59;;;;;;;8.57;1.83;;;14.70;99.90;;;;;;5053439;28;20076;-65
2022/10/11 11:55:47;;;;;;;7.70;2.00;;;14.70;99.90;;;;;;5054692;28;20091;-64
2022/10/11 11:58:36;;;;;;;15.55;2.35;;;14.70;99.90;;;;;;5015221;28;20172;-64
2022/10/11 12:01:36;;;;;;;9.05;2.13;;;14.60;99.90;;;;;;5053337;28;20393;-64
2022/10/11 12:04:27;;;;;;;7.32;2.17;;;14.60;99.90;;;;;;5052592;28;20489;-64
2022/10/11 12:07:12;;;;;;;7.95;1.95;;;14.60;99.90;;;;;;5052705;28;20080;-65
2022/10/11 12:09:40;;;;;;;9.85;2.10;;;14.60;99.90;;;;;;5053369;28;20394;-64
2022/10/11 12:12:07;;;;;;;16.98;2.70;;;14.60;99.90;;;;;;5035404;28;20156;-64
2022/10/11 12:14:35;;;;;;;8.40;2.22;;;14.60;99.90;;;;;;5054275;28;20044;-65
2022/10/11 12:17:15;;;;;;;7.88;2.22;;;14.60;99.90;;;;;;5052855;28;20055;-65
2022/10/11 12:20:09;;;;;;;7.40;1.88;;;14.60;99.90;;;;;;5052289;28;20401;-65
2022/10/11 12:22:59;;;;;;;9.35;2.05;;;14.60;99.90;;;;;;5053957;28;20044;-64
2022/10/11 12:25:25;;;;;;;8.15;1.75;;;14.70;99.90;;;;;;5044400;28;20053;-65
2022/10/11 12:27:58;;;;;;;7.15;2.28;;;14.60;99.90;;;;;;5053519;28;20127;-65
2022/10/11 12:30:43;;;;;;;10.05;2.53;;;14.60;99.90;;;;;;5052315;28;20083;-65
2022/10/11 12:33:13;;;;;;;5.88;2.15;;;14.60;99.90;;;;;;5068340;28;20107;-65
2022/10/11 12:35:49;;;;;;;7.72;2.30;;;14.60;99.90;;;;;;5052398;28;20047;-64
2022/10/11 12:38:21;;;;;;;13.15;2.33;;;14.60;99.90;;;;;;5053456;28;20424;-65
2022/10/11 12:40:50;;;;;;;6.68;1.95;;;14.60;99.90;;;;;;5051686;28;20386;-64
2022/10/11 12:43:18;;;;;;;6.63;2.30;;;14.60;99.90;;;;;;5053453;28;20505;-65
2022/10/11 12:45:46;;;;;;;8.93;2.75;;;14.60;99.90;;;;;;5086552;28;20044;-64
2022/10/11 12:48:24;;;;;;;7.20;1.88;;;14.60;99.90;;;;;;5051209;28;20393;-65
2022/10/11 12:51:27;;;;;;;9.52;2.17;;;14.50;99.90;;;;;;5085872;28;20071;-65
2022/10/11 12:54:17;;;;;;;6.40;1.95;;;14.60;99.90;;;;;;5084499;28;20037;-65
2022/10/11 12:57:09;;;;;;;6.65;1.95;;;14.60;99.90;;;;;;5052449;28;20045;-64
2022/10/11 12:59:43;;;;;;;5.10;2.00;;;14.60;99.90;;;;;;5052247;28;20072;-64
2022/10/11 13:02:35;;;;;;;9.17;2.67;;;14.60;99.90;;;;;;5052304;28;20118;-64
2022/10/11 13:05:41;;;;;;;7.15;1.73;;;14.50;99.90;;;;;;5051809;28;20290;-65
2022/10/11 13:08:13;;;;;;;9.63;2.50;;;14.50;99.90;;;;;;5050978;28;20068;-64
2022/10/11 13:10:43;;;;;;;8.25;2.10;;;14.60;99.90;;;;;;5053041;28;20068;-65
2022/10/11 13:13:22;;;;;;;12.90;2.25;;;14.60;99.90;;;;;;5050777;28;20041;-66